createdAt,value
2023-03-31T00:02:14.034Z,12.42
2023-03-31T00:04:46.453Z,12.41
2023-03-31T00:07:14.771Z,12.41
2023-03-31T00:09:46.229Z,12.39
2023-03-31T00:12:16.729Z,12.41
2023-03-31T00:14:43.886Z,12.35
2023-03-31T00:17:11.560Z,12.34
2023-03-31T00:19:40.229Z,12.34
2023-03-31T00:22:07.158Z,12.31
2023-03-31T00:24:34.306Z,12.33
2023-03-31T00:27:04.520Z,12.29
2023-03-31T00:29:33.644Z,12.30
2023-03-31T00:32:00.556Z,12.29
2023-03-31T00:34:28.044Z,12.27
2023-03-31T00:36:56.836Z,12.21
2023-03-31T00:39:28.125Z,12.22
2023-03-31T00:41:54.872Z,12.21
2023-03-31T00:44:25.581Z,12.21
2023-03-31T00:46:55.962Z,12.20
2023-03-31T00:49:30.208Z,12.20
2023-03-31T00:52:08.440Z,12.23
2023-03-31T00:54:35.777Z,12.21
2023-03-31T00:57:03.734Z,12.22
2023-03-31T00:59:31.749Z,12.21
2023-03-31T01:01:59.348Z,12.18
2023-03-31T01:04:26.536Z,12.20
2023-03-31T01:07:04.030Z,12.16
2023-03-31T01:09:35.005Z,12.16
2023-03-31T01:12:03.588Z,12.14
2023-03-31T01:14:31.364Z,12.12
2023-03-31T01:16:58.189Z,12.12
2023-03-31T01:20:01.943Z,12.11
2023-03-31T01:22:53.114Z,12.10
2023-03-31T01:25:38.765Z,12.10
2023-03-31T01:28:23.481Z,12.07
2023-03-31T01:31:23.058Z,12.04
2023-03-31T01:34:27.587Z,12.07
2023-03-31T01:37:14.824Z,12.06
2023-03-31T01:40:28.725Z,12.01
2023-03-31T01:42:59.698Z,12.03
2023-03-31T01:45:28.243Z,12.03
2023-03-31T01:48:03.077Z,12.04
2023-03-31T01:51:03.525Z,12.03
2023-03-31T01:53:34.879Z,12.03
2023-03-31T01:56:16.180Z,12.01
2023-03-31T01:58:47.782Z,11.97
2023-03-31T02:01:22.512Z,12.00
2023-03-31T02:03:54.233Z,11.96
2023-03-31T02:06:24.549Z,11.97
2023-03-31T02:08:57.456Z,11.96
2023-03-31T02:11:24.360Z,11.93
2023-03-31T02:13:52.623Z,11.94
2023-03-31T02:16:24.549Z,11.94
2023-03-31T02:18:53.932Z,11.92
2023-03-31T02:21:20.694Z,11.92
2023-03-31T02:23:47.728Z,11.90
2023-03-31T02:26:25.139Z,11.90
2023-03-31T02:28:52.243Z,11.91
2023-03-31T02:32:00.966Z,11.89
2023-03-31T02:34:28.181Z,11.86
2023-03-31T02:36:54.944Z,11.79
2023-03-31T02:39:25.614Z,11.84
2023-03-31T02:41:52.369Z,11.82
2023-03-31T02:44:19.478Z,11.83
2023-03-31T02:46:46.294Z,11.79
2023-03-31T02:49:13.467Z,11.80
2023-03-31T02:51:46.917Z,11.80
2023-03-31T02:54:35.311Z,11.78
2023-03-31T02:57:12.460Z,11.75
2023-03-31T02:59:58.251Z,11.76
2023-03-31T03:02:31.045Z,11.75
2023-03-31T03:05:27.476Z,11.75
2023-03-31T03:08:32.126Z,11.75
2023-03-31T03:11:08.040Z,11.73
2023-03-31T03:13:48.049Z,11.70
2023-03-31T03:16:24.782Z,11.71
2023-03-31T03:18:59.153Z,11.63
2023-03-31T03:21:26.649Z,11.68
2023-03-31T03:23:53.584Z,11.64
2023-03-31T03:26:24.480Z,11.67
2023-03-31T03:28:51.442Z,11.62
2023-03-31T03:31:19.463Z,11.62
2023-03-31T03:33:46.554Z,11.63
2023-03-31T03:36:13.798Z,11.64
2023-03-31T03:38:40.754Z,11.60
2023-03-31T03:41:07.837Z,11.60
2023-03-31T03:43:34.600Z,11.61
2023-03-31T03:46:01.905Z,11.57
2023-03-31T03:48:28.730Z,11.58
2023-03-31T03:50:55.928Z,11.56
2023-03-31T03:53:22.680Z,11.50
2023-03-31T03:55:49.840Z,11.46
2023-03-31T03:58:17.299Z,11.46
2023-03-31T04:00:45.408Z,11.46
2023-03-31T04:03:13.072Z,11.44
2023-03-31T04:05:40.258Z,11.41
2023-03-31T04:08:08.500Z,11.39
2023-03-31T04:10:35.956Z,11.38
2023-03-31T04:13:03.079Z,11.37
2023-03-31T04:15:30.246Z,11.32
2023-03-31T04:17:58.214Z,11.27
2023-03-31T04:20:31.580Z,11.26
2023-03-31T04:22:58.296Z,11.33
2023-03-31T04:25:25.456Z,11.28
2023-03-31T04:27:55.619Z,11.27
2023-03-31T04:30:30.769Z,11.31
2023-03-31T04:32:59.442Z,11.26
2023-03-31T04:35:28.226Z,11.25
2023-03-31T04:38:02.602Z,11.18
2023-03-31T04:40:29.749Z,11.17
2023-03-31T04:42:56.490Z,11.21
2023-03-31T04:45:23.586Z,11.21
2023-03-31T04:47:50.366Z,11.18
2023-03-31T04:50:17.698Z,11.19
2023-03-31T04:52:44.826Z,11.23
2023-03-31T04:55:11.928Z,11.20
2023-03-31T04:57:38.704Z,11.21
2023-03-31T05:00:09.218Z,11.19
2023-03-31T05:02:36.134Z,11.18
2023-03-31T05:05:04.545Z,11.19
2023-03-31T05:07:31.599Z,11.16
2023-03-31T05:09:58.726Z,11.15
2023-03-31T05:12:25.986Z,11.14
2023-03-31T05:14:53.112Z,11.14
2023-03-31T05:17:19.883Z,11.12
2023-03-31T05:19:46.922Z,11.13
2023-03-31T05:22:13.706Z,11.08
2023-03-31T05:24:40.726Z,11.11
2023-03-31T05:27:07.558Z,11.14
2023-03-31T05:29:34.723Z,11.12
2023-03-31T05:32:01.741Z,11.13
2023-03-31T05:34:28.997Z,11.14
2023-03-31T05:36:55.893Z,11.22
2023-03-31T05:39:22.986Z,11.28
2023-03-31T05:41:49.754Z,11.30
2023-03-31T05:44:16.958Z,11.33
2023-03-31T05:46:44.167Z,11.35
2023-03-31T05:49:11.971Z,11.36
2023-03-31T05:51:38.725Z,11.35
2023-03-31T05:54:06.505Z,11.39
2023-03-31T05:56:33.684Z,11.42
2023-03-31T05:59:01.390Z,11.41
2023-03-31T06:01:30.195Z,11.42
2023-03-31T06:03:57.447Z,11.43
2023-03-31T06:06:25.427Z,11.47
2023-03-31T06:08:52.649Z,11.48
2023-03-31T06:11:21.055Z,11.52
2023-03-31T06:13:48.654Z,11.55
2023-03-31T06:16:17.213Z,11.57
2023-03-31T06:18:44.472Z,11.59
2023-03-31T06:21:16.694Z,11.63
2023-03-31T06:23:47.132Z,11.68
2023-03-31T06:26:15.712Z,11.68
2023-03-31T06:28:43.574Z,11.72
2023-03-31T06:31:14.782Z,11.76
2023-03-31T06:34:21.578Z,11.83
2023-03-31T06:36:48.459Z,11.87
2023-03-31T06:39:21.657Z,11.93
2023-03-31T06:41:48.471Z,11.97
2023-03-31T06:44:19.380Z,12.00
2023-03-31T06:46:46.273Z,12.08
2023-03-31T06:49:13.518Z,12.10
2023-03-31T06:51:40.564Z,12.16
2023-03-31T06:54:07.638Z,12.19
2023-03-31T06:56:34.634Z,12.25
2023-03-31T06:59:01.710Z,12.32
2023-03-31T07:01:28.533Z,12.37
2023-03-31T07:03:55.886Z,12.41
2023-03-31T07:06:53.766Z,12.48
2023-03-31T07:09:23.473Z,12.54
2023-03-31T07:11:50.280Z,12.59
2023-03-31T07:14:17.402Z,12.64
2023-03-31T07:16:44.340Z,12.72
2023-03-31T07:19:11.537Z,12.82
2023-03-31T07:21:38.295Z,12.85
2023-03-31T07:24:05.820Z,12.88
2023-03-31T07:26:32.719Z,12.99
2023-03-31T07:28:59.976Z,13.07
2023-03-31T07:31:26.835Z,13.12
2023-03-31T07:33:53.956Z,13.21
2023-03-31T07:36:20.927Z,13.27
2023-03-31T07:38:49.686Z,13.36
2023-03-31T07:41:20.524Z,13.41
2023-03-31T07:43:47.849Z,13.47
2023-03-31T07:46:22.873Z,13.55
2023-03-31T07:48:49.975Z,13.62
2023-03-31T07:51:18.444Z,13.68
2023-03-31T07:53:46.005Z,13.76
2023-03-31T07:56:12.904Z,13.80
2023-03-31T07:58:40.003Z,13.86
2023-03-31T08:01:08.253Z,13.94
2023-03-31T08:03:35.571Z,14.03
2023-03-31T08:06:02.428Z,14.06
2023-03-31T08:08:29.545Z,14.13
2023-03-31T08:10:56.386Z,14.19
2023-03-31T08:13:23.517Z,14.25
2023-03-31T08:15:50.372Z,14.31
2023-03-31T08:18:17.636Z,14.33
2023-03-31T08:20:44.430Z,14.40
2023-03-31T08:23:12.151Z,14.43
2023-03-31T08:25:38.978Z,14.47
2023-03-31T08:28:06.949Z,14.51
2023-03-31T08:30:33.876Z,14.54
2023-03-31T08:33:00.992Z,14.63
2023-03-31T08:35:27.828Z,14.73
2023-03-31T08:37:54.948Z,14.75
2023-03-31T08:40:26.341Z,14.83
2023-03-31T08:42:55.566Z,14.86
2023-03-31T08:45:23.536Z,14.89
2023-03-31T08:47:58.619Z,14.94
2023-03-31T08:50:27.670Z,14.98
2023-03-31T08:53:04.075Z,15.01
2023-03-31T08:55:42.465Z,15.06
2023-03-31T08:58:15.948Z,15.18
2023-03-31T09:00:52.485Z,15.25
2023-03-31T09:03:26.115Z,15.28
2023-03-31T09:06:07.187Z,15.29
2023-03-31T09:08:35.805Z,15.36
2023-03-31T09:11:32.478Z,15.43
2023-03-31T09:14:18.466Z,15.53
2023-03-31T09:16:49.637Z,15.57
2023-03-31T09:19:25.722Z,15.64
2023-03-31T09:21:53.308Z,15.71
2023-03-31T09:24:27.460Z,15.72
2023-03-31T09:27:07.620Z,15.74
2023-03-31T09:29:38.666Z,15.86
2023-03-31T09:32:18.103Z,15.95
2023-03-31T09:34:46.268Z,16.00
2023-03-31T09:37:13.155Z,16.09
2023-03-31T09:39:40.675Z,16.13
2023-03-31T09:42:07.489Z,16.18
2023-03-31T09:44:41.383Z,16.21
2023-03-31T09:47:12.985Z,16.27
2023-03-31T09:49:40.103Z,16.34
2023-03-31T09:52:35.260Z,16.48
2023-03-31T09:55:05.586Z,16.58
2023-03-31T09:57:39.094Z,16.63
2023-03-31T10:00:16.977Z,16.65
2023-03-31T10:02:50.640Z,16.73
2023-03-31T10:05:26.103Z,16.75
2023-03-31T10:08:14.304Z,16.82
2023-03-31T10:10:45.538Z,16.83
2023-03-31T10:13:14.520Z,16.87
2023-03-31T10:15:42.438Z,16.87
2023-03-31T10:18:16.689Z,16.85
2023-03-31T10:20:45.321Z,16.86
2023-03-31T10:23:29.772Z,16.91
2023-03-31T10:25:56.887Z,16.87
2023-03-31T10:28:23.691Z,16.85
2023-03-31T10:30:55.763Z,16.80
2023-03-31T10:33:25.155Z,16.93
2023-03-31T10:36:26.235Z,16.92
2023-03-31T10:38:53.298Z,16.97
2023-03-31T10:41:24.227Z,17.05
2023-03-31T10:43:55.735Z,17.08
2023-03-31T10:46:49.323Z,17.08
2023-03-31T10:49:22.315Z,17.03
2023-03-31T10:51:59.427Z,17.02
2023-03-31T10:54:26.719Z,17.08
2023-03-31T10:57:05.619Z,17.15
2023-03-31T10:59:48.490Z,17.17
2023-03-31T11:02:51.498Z,17.14
2023-03-31T11:05:39.672Z,17.16
2023-03-31T11:08:42.599Z,17.18
2023-03-31T11:11:25.340Z,17.16
2023-03-31T11:14:08.178Z,17.23
2023-03-31T11:16:58.977Z,17.19
2023-03-31T11:19:35.657Z,17.22
2023-03-31T11:22:26.638Z,17.25
2023-03-31T11:25:03.297Z,17.27
2023-03-31T11:27:51.072Z,17.30
2023-03-31T11:30:21.702Z,17.32
2023-03-31T11:33:21.070Z,17.31
2023-03-31T11:36:06.107Z,17.30
2023-03-31T11:38:53.770Z,17.35
2023-03-31T11:41:27.444Z,17.44
2023-03-31T11:44:02.558Z,17.49
2023-03-31T11:46:56.050Z,17.54
2023-03-31T11:49:30.442Z,17.63
2023-03-31T11:52:01.361Z,17.67
2023-03-31T11:54:34.196Z,17.66
2023-03-31T11:57:10.777Z,17.70
2023-03-31T11:59:37.597Z,17.67
2023-03-31T12:02:11.551Z,17.69
2023-03-31T12:04:40.395Z,17.70
2023-03-31T12:07:31.239Z,17.74
2023-03-31T12:10:05.606Z,17.78
2023-03-31T12:12:42.360Z,17.85
2023-03-31T12:15:27.924Z,17.82
2023-03-31T12:18:02.053Z,17.83
2023-03-31T12:20:40.747Z,17.82
2023-03-31T12:23:13.052Z,17.87
2023-03-31T12:25:52.611Z,17.90
2023-03-31T12:28:19.727Z,17.90
2023-03-31T12:30:46.695Z,17.88
2023-03-31T12:33:15.773Z,17.84
2023-03-31T12:35:52.955Z,17.86
2023-03-31T12:38:22.836Z,17.88
2023-03-31T12:41:04.660Z,17.86
2023-03-31T12:43:35.783Z,17.86
2023-03-31T12:46:36.837Z,17.92
2023-03-31T12:49:07.094Z,17.85
2023-03-31T12:51:44.227Z,17.76
2023-03-31T12:54:26.998Z,17.80
2023-03-31T12:57:00.014Z,17.77
2023-03-31T12:59:41.086Z,17.75
2023-03-31T13:02:14.994Z,17.80
2023-03-31T13:04:42.437Z,17.73
2023-03-31T13:07:29.046Z,17.70
2023-03-31T13:10:01.642Z,17.70
2023-03-31T13:12:28.710Z,17.65
2023-03-31T13:14:59.543Z,17.61
2023-03-31T13:17:31.612Z,17.59
2023-03-31T13:20:38.073Z,17.53
2023-03-31T13:23:04.882Z,17.50
2023-03-31T13:25:44.988Z,17.43
2023-03-31T13:28:39.224Z,17.37
2023-03-31T13:31:07.763Z,17.32
2023-03-31T13:33:41.208Z,17.28
2023-03-31T13:36:37.854Z,17.19
2023-03-31T13:39:32.451Z,17.16
2023-03-31T13:42:34.942Z,17.11
2023-03-31T13:45:32.492Z,16.96
2023-03-31T13:48:02.727Z,16.95
2023-03-31T13:50:41.712Z,16.87
2023-03-31T13:53:20.909Z,16.87
2023-03-31T13:55:53.502Z,16.80
2023-03-31T14:01:20.901Z,16.75
2023-03-31T14:04:15.569Z,16.69
2023-03-31T14:07:02.485Z,16.70
2023-03-31T14:09:34.338Z,16.69
2023-03-31T14:12:01.942Z,16.62
2023-03-31T14:14:29.953Z,16.59
2023-03-31T14:16:57.341Z,16.58
2023-03-31T14:19:30.852Z,16.55
2023-03-31T14:22:03.663Z,16.54
2023-03-31T14:24:45.117Z,16.48
2023-03-31T14:27:21.123Z,16.49
2023-03-31T14:29:51.636Z,16.45
2023-03-31T14:32:55.562Z,16.41
2023-03-31T14:35:31.873Z,16.39
2023-03-31T14:37:59.083Z,16.39
2023-03-31T14:40:26.537Z,16.35
2023-03-31T14:42:53.419Z,16.31
2023-03-31T14:45:25.617Z,16.30
2023-03-31T14:47:59.852Z,16.31
2023-03-31T14:50:32.679Z,16.31
2023-03-31T14:53:01.364Z,16.33
2023-03-31T14:55:44.155Z,16.32
2023-03-31T14:58:24.481Z,16.30
2023-03-31T15:00:51.811Z,16.31
2023-03-31T15:03:18.665Z,16.31
2023-03-31T15:05:48.815Z,16.29
2023-03-31T15:08:18.727Z,16.23
2023-03-31T15:10:54.030Z,16.26
2023-03-31T15:13:25.673Z,16.25
2023-03-31T15:15:52.797Z,16.27
2023-03-31T15:18:19.558Z,16.28
2023-03-31T15:20:46.739Z,16.30
2023-03-31T15:23:30.791Z,16.30
2023-03-31T15:25:59.145Z,16.37
2023-03-31T15:28:27.589Z,16.35
2023-03-31T15:31:03.500Z,16.38
2023-03-31T15:33:41.501Z,16.39
2023-03-31T15:36:10.628Z,16.40
2023-03-31T15:38:37.421Z,16.37
2023-03-31T15:41:04.522Z,16.38
2023-03-31T15:43:45.229Z,16.44
2023-03-31T15:46:40.030Z,16.46
2023-03-31T15:49:21.070Z,16.39
2023-03-31T15:51:48.777Z,16.42
2023-03-31T15:54:40.974Z,16.42
2023-03-31T15:57:09.075Z,16.42
2023-03-31T15:59:55.779Z,16.43
2023-03-31T16:02:27.962Z,16.47
2023-03-31T16:04:56.979Z,16.43
2023-03-31T16:07:27.414Z,16.40
2023-03-31T16:09:57.379Z,16.43
2023-03-31T16:12:32.204Z,16.39
2023-03-31T16:15:05.894Z,16.37
2023-03-31T16:17:36.760Z,16.38
2023-03-31T16:20:07.570Z,16.41
2023-03-31T16:22:43.303Z,16.41
2023-03-31T16:25:21.366Z,16.38
2023-03-31T16:27:54.641Z,16.33
2023-03-31T16:30:23.722Z,16.30
2023-03-31T16:33:10.154Z,16.32
2023-03-31T16:35:38.615Z,16.33
2023-03-31T16:38:06.756Z,16.34
2023-03-31T16:40:38.632Z,16.35
2023-03-31T16:43:15.897Z,16.33
2023-03-31T16:45:52.917Z,16.30
2023-03-31T16:48:20.889Z,16.30
2023-03-31T16:50:49.066Z,16.29
2023-03-31T16:53:22.224Z,16.29
2023-03-31T16:55:49.359Z,16.28
2023-03-31T16:58:16.677Z,16.27
2023-03-31T17:00:43.694Z,16.27
2023-03-31T17:03:11.830Z,16.28
2023-03-31T17:05:43.493Z,16.29
2023-03-31T17:08:11.148Z,16.27
2023-03-31T17:10:38.832Z,16.24
2023-03-31T17:13:06.546Z,16.23
2023-03-31T17:15:36.436Z,16.22
2023-03-31T17:18:06.334Z,16.22
2023-03-31T17:20:34.263Z,16.23
2023-03-31T17:23:01.636Z,16.22
2023-03-31T17:25:28.565Z,16.25
2023-03-31T17:27:56.281Z,16.22
2023-03-31T17:30:23.289Z,16.22
2023-03-31T17:32:51.563Z,16.23
2023-03-31T17:35:22.632Z,16.21
2023-03-31T17:37:51.669Z,16.22
2023-03-31T17:40:18.452Z,16.20
2023-03-31T17:42:47.210Z,16.18
2023-03-31T17:45:14.338Z,16.15
2023-03-31T17:47:42.066Z,16.12
2023-03-31T17:50:09.403Z,16.08
2023-03-31T17:52:36.653Z,16.06
2023-03-31T17:55:04.336Z,16.06
2023-03-31T17:57:32.191Z,16.05
2023-03-31T17:59:59.195Z,16.04
2023-03-31T18:02:26.344Z,16.01
2023-03-31T18:04:53.476Z,16.00
2023-03-31T18:07:23.147Z,15.99
2023-03-31T18:09:49.947Z,15.96
2023-03-31T18:12:17.683Z,15.92
2023-03-31T18:14:44.654Z,15.88
2023-03-31T18:17:14.911Z,15.88
2023-03-31T18:19:42.883Z,15.86
2023-03-31T18:22:10.220Z,15.80
2023-03-31T18:24:38.477Z,15.80
2023-03-31T18:27:05.779Z,15.76
2023-03-31T18:29:32.776Z,15.74
2023-03-31T18:32:00.124Z,15.73
2023-03-31T18:34:27.293Z,15.70
2023-03-31T18:36:54.670Z,15.65
2023-03-31T18:39:22.159Z,15.63
2023-03-31T18:41:49.299Z,15.58
2023-03-31T18:44:17.470Z,15.56
2023-03-31T18:46:45.132Z,15.55
2023-03-31T18:49:12.085Z,15.49
2023-03-31T18:51:39.222Z,15.48
2023-03-31T18:54:06.262Z,15.46
2023-03-31T18:56:33.390Z,15.45
2023-03-31T18:59:00.191Z,15.39
2023-03-31T19:01:27.484Z,15.36
2023-03-31T19:03:54.463Z,15.32
2023-03-31T19:06:22.525Z,15.33
2023-03-31T19:08:49.488Z,15.31
2023-03-31T19:11:17.063Z,15.28
2023-03-31T19:13:44.009Z,15.27
2023-03-31T19:16:12.311Z,15.26
2023-03-31T19:18:39.535Z,15.21
2023-03-31T19:21:06.776Z,15.19
2023-03-31T19:23:34.206Z,15.19
2023-03-31T19:26:02.988Z,15.16
2023-03-31T19:28:30.556Z,15.16
2023-03-31T19:30:58.043Z,15.16
2023-03-31T19:33:25.552Z,15.11
2023-03-31T19:35:52.918Z,15.10
2023-03-31T19:38:21.632Z,15.07
2023-03-31T19:40:49.120Z,15.10
2023-03-31T19:43:23.310Z,15.07
2023-03-31T19:45:52.928Z,15.03
2023-03-31T19:48:20.118Z,15.03
2023-03-31T19:50:51.151Z,14.99
2023-03-31T19:53:18.558Z,14.98
2023-03-31T19:55:57.508Z,14.97
2023-03-31T20:02:53.369Z,14.94
2023-03-31T20:05:21.038Z,14.95
2023-03-31T20:07:48.076Z,14.92
2023-03-31T20:10:15.960Z,14.91
2023-03-31T20:12:43.273Z,14.90
2023-03-31T20:15:10.557Z,14.88
2023-03-31T20:17:38.659Z,14.88
2023-03-31T20:20:06.380Z,14.84
2023-03-31T20:22:33.313Z,14.83
2023-03-31T20:25:01.088Z,14.80
2023-03-31T20:27:28.066Z,14.81
2023-03-31T20:29:55.620Z,14.77
2023-03-31T20:32:24.166Z,14.73
2023-03-31T20:34:51.746Z,14.74
2023-03-31T20:37:19.070Z,14.65
2023-03-31T20:39:46.556Z,14.62
2023-03-31T20:42:13.360Z,14.66
2023-03-31T20:44:41.085Z,14.65
2023-03-31T20:47:08.350Z,14.64
2023-03-31T20:49:35.836Z,14.63
2023-03-31T20:52:02.713Z,14.58
2023-03-31T20:54:29.841Z,14.54
2023-03-31T20:56:56.718Z,14.52
2023-03-31T20:59:24.071Z,14.55
2023-03-31T21:01:50.863Z,14.53
2023-03-31T21:04:18.081Z,14.51
2023-03-31T21:06:46.448Z,14.46
2023-03-31T21:09:13.965Z,14.44
2023-03-31T21:11:40.913Z,14.40
2023-03-31T21:14:10.226Z,14.39
2023-03-31T21:16:37.515Z,14.42
2023-03-31T21:19:04.659Z,14.43
2023-03-31T21:21:31.608Z,14.42
2023-03-31T21:23:58.926Z,14.40
2023-03-31T21:26:25.907Z,14.38
2023-03-31T21:28:55.590Z,14.40
2023-03-31T21:31:24.256Z,14.40
2023-03-31T21:33:52.273Z,14.36
2023-03-31T21:36:22.446Z,14.36
2023-03-31T21:38:50.552Z,14.33
2023-03-31T21:41:19.129Z,14.30
2023-03-31T21:43:46.456Z,14.28
2023-03-31T21:46:20.792Z,14.24
2023-03-31T21:48:48.884Z,14.20
2023-03-31T21:51:17.069Z,14.20
2023-03-31T21:53:44.398Z,14.16
2023-03-31T21:56:11.226Z,14.16
2023-03-31T21:58:38.359Z,14.13
2023-03-31T22:01:05.348Z,14.14
2023-03-31T22:03:34.603Z,14.13
2023-03-31T22:06:03.484Z,14.06
2023-03-31T22:08:31.623Z,14.05
2023-03-31T22:11:00.344Z,14.09
2023-03-31T22:13:28.124Z,14.05
2023-03-31T22:15:54.943Z,13.99
2023-03-31T22:18:22.163Z,13.99
2023-03-31T22:20:49.188Z,13.93
2023-03-31T22:23:16.739Z,13.95
2023-03-31T22:25:43.688Z,13.91
2023-03-31T22:28:16.128Z,13.91
2023-03-31T22:30:42.965Z,13.85
2023-03-31T22:33:10.083Z,13.84
2023-03-31T22:35:37.048Z,13.80
2023-03-31T22:38:06.102Z,13.80
2023-03-31T22:40:34.636Z,13.81
2023-03-31T22:43:01.839Z,13.79
2023-03-31T22:45:28.614Z,13.75
2023-03-31T22:47:56.569Z,13.77
2023-03-31T22:50:23.848Z,13.77
2023-03-31T22:52:50.966Z,13.72
2023-03-31T22:55:17.770Z,13.71
2023-03-31T22:57:44.962Z,13.69
2023-03-31T23:00:12.870Z,13.69
2023-03-31T23:02:40.648Z,13.65
2023-03-31T23:05:08.004Z,13.66
2023-03-31T23:07:35.174Z,13.66
2023-03-31T23:10:02.230Z,13.66
2023-03-31T23:12:29.411Z,13.62
2023-03-31T23:14:56.427Z,13.60
2023-03-31T23:17:23.630Z,13.61
2023-03-31T23:19:50.534Z,13.59
2023-03-31T23:22:19.069Z,13.61
2023-03-31T23:24:46.615Z,13.57
2023-03-31T23:27:13.622Z,13.50
2023-03-31T23:29:41.427Z,13.54
2023-03-31T23:32:08.548Z,13.51
2023-03-31T23:34:35.413Z,13.48
2023-03-31T23:37:02.428Z,13.45
2023-03-31T23:39:29.285Z,13.45
2023-03-31T23:41:57.238Z,13.43
2023-03-31T23:44:23.970Z,13.47
2023-03-31T23:46:51.284Z,13.44
2023-03-31T23:49:18.113Z,13.45
2023-03-31T23:51:45.290Z,13.42
2023-03-31T23:54:12.310Z,13.41
2023-03-31T23:56:39.400Z,13.38
2023-03-31T23:59:06.507Z,13.39
